createdAt,value
2022-10-06T00:05:20.706Z,13.7
2022-10-06T00:25:22.042Z,13.7
2022-10-06T00:35:22.958Z,13.7
2022-10-06T00:45:23.006Z,13.6
2022-10-06T00:55:23.824Z,13.4
2022-10-06T01:05:24.606Z,13.3
2022-10-06T01:15:25.405Z,13.1
2022-10-06T01:25:25.815Z,13
2022-10-06T01:35:25.997Z,12.9
2022-10-06T01:45:26.751Z,12.8
2022-10-06T01:55:27.006Z,12.7
2022-10-06T02:05:27.715Z,12.7
2022-10-06T02:15:28.350Z,12.6
2022-10-06T03:45:32.417Z,12.2
2022-10-06T03:55:33.350Z,12.1
2022-10-06T04:05:34.184Z,12.1
2022-10-06T04:15:34.535Z,12.1
2022-10-06T04:25:34.897Z,12
2022-10-06T04:35:35.925Z,12.1
2022-10-06T04:45:36.145Z,12
2022-10-06T04:55:36.109Z,12
2022-10-06T05:05:36.235Z,11.9
2022-10-06T05:25:37.115Z,11.6
2022-10-06T05:35:37.800Z,11.6
2022-10-06T05:45:38.071Z,11.5
2022-10-06T05:55:38.313Z,11.5
2022-10-06T06:05:39.299Z,11.5
2022-10-06T06:15:39.489Z,11.4
2022-10-06T06:25:40.068Z,11.4
2022-10-06T06:35:40.600Z,11.4
2022-10-06T06:45:41.622Z,11.6
2022-10-06T06:55:41.846Z,11.7
2022-10-06T07:05:42.688Z,11.9
2022-10-06T07:55:32.740Z,13.6
2022-10-06T08:05:33.323Z,14
2022-10-06T08:15:33.801Z,14.3
2022-10-06T08:25:33.848Z,14.4
2022-10-06T08:35:34.067Z,14.7
2022-10-06T08:45:38.359Z,15
2022-10-06T08:55:35.173Z,15.2
2022-10-06T09:05:35.243Z,15.2
2022-10-06T09:15:35.891Z,15.4
2022-10-06T10:35:40.697Z,16.2
2022-10-06T11:05:43.204Z,16.2
2022-10-06T11:45:45.858Z,16.6
2022-10-06T11:55:46.574Z,17.2
2022-10-06T12:55:49.188Z,18.3
2022-10-06T13:45:52.256Z,17.3
2022-10-06T14:15:54.536Z,17.4
2022-10-06T14:25:55.480Z,17.4
2022-10-06T14:35:56.383Z,17.3
2022-10-06T15:05:58.071Z,17.1
2022-10-06T15:15:58.320Z,17
2022-10-06T15:25:58.804Z,17
2022-10-06T15:45:59.439Z,16.8
2022-10-06T16:36:02.037Z,16
2022-10-06T17:16:03.893Z,14.6
2022-10-06T17:26:04.697Z,14.2
2022-10-06T18:16:07.688Z,12.8
2022-10-06T18:26:08.499Z,12.6
2022-10-06T19:16:09.876Z,11.2
2022-10-06T19:46:12.060Z,10.5
2022-10-06T19:56:12.392Z,10.3
2022-10-06T20:06:12.616Z,10.2
2022-10-06T20:16:13.139Z,10.1
2022-10-06T20:26:13.545Z,9.9
2022-10-06T20:36:14.076Z,9.6
2022-10-06T20:46:14.474Z,9.4
2022-10-06T21:06:15.725Z,9.2
2022-10-06T21:26:17.674Z,8.8
2022-10-06T22:16:20.710Z,8.3
2022-10-06T22:36:21.327Z,8
2022-10-06T22:46:22.361Z,7.9
2022-10-06T22:56:22.538Z,8
2022-10-06T23:06:22.709Z,7.9
2022-10-06T23:16:22.975Z,7.6
2022-10-06T23:26:23.501Z,7.5
2022-10-06T23:36:23.918Z,7.4
2022-10-06T23:46:24.838Z,7.5
2022-10-06T23:56:25.115Z,7.4
